Time,TemperatureF,DewpointF,PressureIn,WindDirection,WindDirectionDegrees,WindSpeedMPH,WindSpeedGustMPH,Humidity,HourlyPrecipIn,Conditions,Clouds,dailyrainin,SolarRadiationWatts/m^2,SoftwareType,DateUTC
2014-02-23 00:00:00,43.3,34.2,29.95,WNW,293,0.0,2.0,70,0.00,,CLR,0.00,0.00,VWS V15.00,2014-02-23 08:00:00,
2014-02-23 00:01:00,44.2,34.3,29.96,WNW,293,0.0,0.0,68,0.00,,CLR,0.00,0.00,VWS V15.00,2014-02-23 08:01:00,
2014-02-23 00:06:00,44.3,34.0,29.96,WNW,293,1.0,1.0,67,0.00,,CLR,0.00,0.00,VWS V15.00,2014-02-23 08:06:00,
2014-02-23 00:11:00,44.0,34.1,29.96,WNW,293,0.0,1.0,68,0.00,,CLR,0.00,0.00,VWS V15.00,2014-02-23 08:11:00,
2014-02-23 00:16:00,43.9,34.4,29.95,WNW,293,0.0,1.0,69,0.00,,CLR,0.00,0.00,VWS V15.00,2014-02-23 08:16:00,
2014-02-23 00:21:00,43.8,33.9,29.95,WNW,293,0.0,1.0,68,0.00,,CLR,0.00,0.00,VWS V15.00,2014-02-23 08:21:00,
2014-02-23 00:26:00,43.5,34.0,29.95,WNW,293,1.0,2.0,69,0.00,,CLR,0.00,0.00,VWS V15.00,2014-02-23 08:26:00,
2014-02-23 00:30:00,42.8,33.7,29.95,WNW,293,0.0,1.0,70,0.00,,CLR,0.00,0.00,VWS V15.00,2014-02-23 08:30:00,
2014-02-23 00:31:00,43.5,33.7,29.96,WNW,293,1.0,1.0,68,0.00,,CLR,0.00,0.00,VWS V15.00,2014-02-23 08:31:00,
2014-02-23 00:36:00,43.5,34.4,29.95,WNW,293,1.0,2.0,70,0.00,,CLR,0.00,0.00,VWS V15.00,2014-02-23 08:36:00,
2014-02-23 00:41:00,43.9,34.0,29.96,WNW,293,0.0,2.0,68,0.00,,CLR,0.00,0.00,VWS V15.00,2014-02-23 08:41:00,
2014-02-23 00:46:00,43.2,34.1,29.95,WNW,293,0.0,2.0,70,0.00,,CLR,0.00,0.00,VWS V15.00,2014-02-23 08:46:00,
2014-02-23 00:51:00,43.2,34.1,29.95,WNW,293,0.0,2.0,70,0.00,,CLR,0.00,0.00,VWS V15.00,2014-02-23 08:51:00,
2014-02-23 00:56:00,43.1,34.0,29.95,WNW,293,0.0,2.0,70,0.00,,CLR,0.00,0.00,VWS V15.00,2014-02-23 08:56:00,
2014-02-23 01:00:00,42.4,33.7,29.94,WNW,293,0.0,2.0,71,0.00,,CLR,0.00,0.00,VWS V15.00,2014-02-23 09:00:00,
2014-02-23 01:01:00,43.3,34.2,29.95,WNW,293,0.0,0.0,70,0.00,,CLR,0.00,0.00,VWS V15.00,2014-02-23 09:01:00,
2014-02-23 01:06:00,43.0,33.9,29.95,WNW,293,0.0,0.0,70,0.00,,CLR,0.00,0.00,VWS V15.00,2014-02-23 09:06:00,
2014-02-23 01:11:00,42.7,33.6,29.95,WNW,293,0.0,0.0,70,0.00,,CLR,0.00,0.00,VWS V15.00,2014-02-23 09:11:00,
2014-02-23 01:16:00,42.8,34.1,29.95,WNW,293,0.0,1.0,71,0.00,,CLR,0.00,0.00,VWS V15.00,2014-02-23 09:16:00,
2014-02-23 01:21:00,43.0,33.5,29.95,WNW,293,0.0,1.0,69,0.00,,CLR,0.00,0.00,VWS V15.00,2014-02-23 09:21:00,
2014-02-23 01:26:00,42.5,33.8,29.95,WNW,293,0.0,1.0,71,0.00,,CLR,0.00,0.00,VWS V15.00,2014-02-23 09:26:00,
2014-02-23 01:30:00,41.9,33.9,29.95,WNW,293,1.0,2.0,73,0.00,,CLR,0.00,0.00,VWS V15.00,2014-02-23 09:30:00,
2014-02-23 01:31:00,42.7,33.6,29.95,WNW,293,0.0,0.0,70,0.00,,CLR,0.00,0.00,VWS V15.00,2014-02-23 09:31:00,
2014-02-23 01:36:00,42.5,33.8,29.95,WNW,293,0.0,0.0,71,0.00,,CLR,0.00,0.00,VWS V15.00,2014-02-23 09:36:00,
2014-02-23 01:41:00,42.9,33.8,29.95,WNW,293,0.0,1.0,70,0.00,,CLR,0.00,0.00,VWS V15.00,2014-02-23 09:41:00,
2014-02-23 01:46:00,42.3,33.6,29.95,WNW,293,1.0,2.0,71,0.00,,CLR,0.00,0.00,VWS V15.00,2014-02-23 09:46:00,
2014-02-23 01:51:00,42.1,33.4,29.95,WNW,293,0.0,2.0,71,0.00,,CLR,0.00,0.00,VWS V15.00,2014-02-23 09:51:00,
2014-02-23 01:56:00,42.3,33.9,29.94,WNW,293,0.0,2.0,72,0.00,,CLR,0.00,0.00,VWS V15.00,2014-02-23 09:56:00,
2014-02-23 02:00:00,40.7,32.4,29.95,WNW,293,0.0,2.0,72,0.00,,CLR,0.00,0.00,VWS V15.00,2014-02-23 10:00:00,
2014-02-23 02:01:00,42.5,33.8,29.94,WNW,293,0.0,0.0,71,0.00,,CLR,0.00,0.00,VWS V15.00,2014-02-23 10:01:00,
2014-02-23 02:06:00,42.2,33.1,29.95,WNW,293,0.0,0.0,70,0.00,,CLR,0.00,0.00,VWS V15.00,2014-02-23 10:06:00,
2014-02-23 02:11:00,42.3,33.6,29.95,WNW,293,0.0,1.0,71,0.00,,CLR,0.00,0.00,VWS V15.00,2014-02-23 10:11:00,
2014-02-23 02:16:00,42.1,33.4,29.95,WNW,293,0.0,1.0,71,0.00,,CLR,0.00,0.00,VWS V15.00,2014-02-23 10:16:00,
2014-02-23 02:21:00,41.9,33.5,29.95,WNW,293,1.0,2.0,72,0.00,,CLR,0.00,0.00,VWS V15.00,2014-02-23 10:21:00,
2014-02-23 02:26:00,41.5,32.8,29.95,WNW,293,1.0,2.0,71,0.00,,CLR,0.00,0.00,VWS V15.00,2014-02-23 10:26:00,
2014-02-23 02:30:00,40.7,32.7,29.95,WNW,293,1.0,2.0,73,0.00,,CLR,0.00,0.00,VWS V15.00,2014-02-23 10:30:00,
2014-02-23 02:31:00,41.8,33.5,29.95,WNW,293,1.0,1.0,72,0.00,,CLR,0.00,0.00,VWS V15.00,2014-02-23 10:31:00,
2014-02-23 02:36:00,41.8,33.5,29.94,WNW,293,0.0,2.0,72,0.00,,CLR,0.00,0.00,VWS V15.00,2014-02-23 10:36:00,
2014-02-23 02:41:00,41.6,32.9,29.94,WNW,293,0.0,2.0,71,0.00,,CLR,0.00,0.00,VWS V15.00,2014-02-23 10:41:00,
2014-02-23 02:46:00,41.3,32.6,29.94,WNW,293,0.0,2.0,71,0.00,,CLR,0.00,0.00,VWS V15.00,2014-02-23 10:46:00,
2014-02-23 02:51:00,41.6,32.9,29.95,WNW,293,0.0,2.0,71,0.00,,CLR,0.00,0.00,VWS V15.00,2014-02-23 10:51:00,
2014-02-23 02:56:00,41.0,32.3,29.95,WNW,293,1.0,2.0,71,0.00,,CLR,0.00,0.00,VWS V15.00,2014-02-23 10:56:00,
2014-02-23 03:00:00,40.3,32.3,29.95,WNW,293,0.0,1.0,73,0.00,,CLR,0.00,0.00,VWS V15.00,2014-02-23 11:00:00,
2014-02-23 03:01:00,40.6,32.3,29.95,WNW,293,0.0,0.0,72,0.00,,CLR,0.00,0.00,VWS V15.00,2014-02-23 11:01:00,
2014-02-23 03:06:00,40.6,33.0,29.94,WNW,293,0.0,0.0,74,0.00,,CLR,0.00,0.00,VWS V15.00,2014-02-23 11:06:00,
2014-02-23 03:10:00,41.5,33.2,29.95,WNW,293,1.0,2.0,72,0.00,,CLR,0.00,0.00,VWS V15.00,2014-02-23 11:10:00,
2014-02-23 03:15:00,41.2,32.5,29.95,WNW,293,1.0,2.0,71,0.00,,CLR,0.00,0.00,VWS V15.00,2014-02-23 11:15:00,
2014-02-23 03:20:00,41.0,32.7,29.95,WNW,293,1.0,2.0,72,0.00,,CLR,0.00,0.00,VWS V15.00,2014-02-23 11:20:00,
2014-02-23 03:25:00,40.8,32.5,29.95,WNW,293,0.0,2.0,72,0.00,,CLR,0.00,0.00,VWS V15.00,2014-02-23 11:25:00,
2014-02-23 03:30:00,40.7,33.1,29.95,WNW,293,1.0,1.0,74,0.00,,CLR,0.00,0.00,VWS V15.00,2014-02-23 11:30:00,
2014-02-23 03:35:00,41.1,33.1,29.95,WNW,293,1.0,1.0,73,0.00,,CLR,0.00,0.00,VWS V15.00,2014-02-23 11:35:00,
2014-02-23 03:40:00,41.3,32.3,29.95,WNW,293,1.0,1.0,70,0.00,,CLR,0.00,0.00,VWS V15.00,2014-02-23 11:40:00,
2014-02-23 03:45:00,40.8,32.5,29.94,WNW,293,0.0,1.0,72,0.00,,CLR,0.00,0.00,VWS V15.00,2014-02-23 11:45:00,
2014-02-23 03:50:00,40.6,32.3,29.95,WNW,293,0.0,1.0,72,0.00,,CLR,0.00,0.00,VWS V15.00,2014-02-23 11:50:00,
2014-02-23 03:55:00,40.4,32.8,29.95,WNW,293,0.0,1.0,74,0.00,,CLR,0.00,0.00,VWS V15.00,2014-02-23 11:55:00,
2014-02-23 04:00:00,40.4,32.8,29.95,WNW,293,0.0,0.0,74,0.00,,CLR,0.00,0.00,VWS V15.00,2014-02-23 12:00:00,
2014-02-23 04:05:00,39.5,31.9,29.95,WNW,293,0.0,1.0,74,0.00,,CLR,0.00,0.00,VWS V15.00,2014-02-23 12:05:00,
2014-02-23 04:10:00,40.0,32.7,29.94,WNW,293,1.0,2.0,75,0.00,,CLR,0.00,0.00,VWS V15.00,2014-02-23 12:10:00,
2014-02-23 04:15:00,40.7,32.4,29.94,WNW,293,0.0,2.0,72,0.00,,CLR,0.00,0.00,VWS V15.00,2014-02-23 12:15:00,
2014-02-23 04:20:00,39.8,31.9,29.94,WNW,293,0.0,2.0,73,0.00,,CLR,0.00,0.00,VWS V15.00,2014-02-23 12:20:00,
2014-02-23 04:25:00,39.7,32.1,29.94,WNW,293,0.0,2.0,74,0.00,,CLR,0.00,0.00,VWS V15.00,2014-02-23 12:25:00,
2014-02-23 04:30:00,39.7,32.1,29.94,WNW,293,0.0,1.0,74,0.00,,CLR,0.00,0.00,VWS V15.00,2014-02-23 12:30:00,
2014-02-23 04:35:00,39.9,32.6,29.95,WNW,293,1.0,2.0,75,0.00,,CLR,0.00,0.00,VWS V15.00,2014-02-23 12:35:00,
2014-02-23 04:40:00,40.1,32.8,29.95,WNW,293,1.0,2.0,75,0.00,,CLR,0.00,0.00,VWS V15.00,2014-02-23 12:40:00,
2014-02-23 04:45:00,40.1,32.8,29.95,WNW,293,2.0,2.0,75,0.00,,CLR,0.00,0.00,VWS V15.00,2014-02-23 12:45:00,
2014-02-23 04:50:00,40.2,32.2,29.95,WNW,293,1.0,2.0,73,0.00,,CLR,0.00,0.00,VWS V15.00,2014-02-23 12:50:00,
2014-02-23 04:55:00,39.9,32.0,29.95,WNW,293,0.0,2.0,73,0.00,,CLR,0.00,0.00,VWS V15.00,2014-02-23 12:55:00,
2014-02-23 05:00:00,39.8,32.5,29.95,WNW,293,0.0,0.0,75,0.00,,CLR,0.00,0.00,VWS V15.00,2014-02-23 13:00:00,
2014-02-23 05:05:00,39.6,32.0,29.95,WNW,293,0.0,0.0,74,0.00,,CLR,0.00,0.00,VWS V15.00,2014-02-23 13:05:00,
2014-02-23 05:10:00,40.0,32.7,29.96,WNW,293,1.0,1.0,75,0.00,,CLR,0.00,0.00,VWS V15.00,2014-02-23 13:10:00,
2014-02-23 05:15:00,40.6,32.3,29.96,WNW,293,0.0,2.0,72,0.00,,CLR,0.00,0.00,VWS V15.00,2014-02-23 13:15:00,
2014-02-23 05:20:00,40.0,31.7,29.96,WNW,293,0.0,2.0,72,0.00,,CLR,0.00,0.00,VWS V15.00,2014-02-23 13:20:00,
2014-02-23 05:25:00,39.5,31.9,29.97,WNW,293,0.0,2.0,74,0.00,,CLR,0.00,0.00,VWS V15.00,2014-02-23 13:25:00,
2014-02-23 05:30:00,39.4,31.8,29.97,WNW,293,0.0,0.0,74,0.00,,CLR,0.00,0.00,VWS V15.00,2014-02-23 13:30:00,
2014-02-23 05:35:00,39.6,31.7,29.97,WNW,293,0.0,1.0,73,0.00,,CLR,0.00,0.00,VWS V15.00,2014-02-23 13:35:00,
2014-02-23 05:40:00,40.0,31.7,29.97,WNW,293,0.0,1.0,72,0.00,,CLR,0.00,0.00,VWS V15.00,2014-02-23 13:40:00,
2014-02-23 05:45:00,40.0,31.7,29.97,WNW,293,0.0,1.0,72,0.00,,CLR,0.00,0.00,VWS V15.00,2014-02-23 13:45:00,
2014-02-23 05:50:00,39.6,31.7,29.97,WNW,293,1.0,1.0,73,0.00,,CLR,0.00,0.00,VWS V15.00,2014-02-23 13:50:00,
2014-02-23 05:55:00,39.6,31.7,29.97,WNW,293,0.0,1.0,73,0.00,,CLR,0.00,0.00,VWS V15.00,2014-02-23 13:55:00,
2014-02-23 06:00:00,39.4,31.1,29.97,WNW,293,0.0,0.0,72,0.00,,CLR,0.00,0.00,VWS V15.00,2014-02-23 14:00:00,
2014-02-23 06:05:00,39.2,31.3,29.97,WNW,293,0.0,1.0,73,0.00,,CLR,0.00,0.00,VWS V15.00,2014-02-23 14:05:00,
2014-02-23 06:10:00,38.7,31.1,29.97,WNW,293,0.0,0.0,74,0.00,,CLR,0.00,0.00,VWS V15.00,2014-02-23 14:10:00,
2014-02-23 06:15:00,38.7,31.1,29.98,WNW,293,0.0,1.0,74,0.00,,CLR,0.00,0.00,VWS V15.00,2014-02-23 14:15:00,
2014-02-23 06:20:00,38.9,31.3,29.98,WNW,293,0.0,1.0,74,0.00,,CLR,0.00,0.00,VWS V15.00,2014-02-23 14:20:00,
2014-02-23 06:25:00,38.7,31.1,29.98,WNW,293,0.0,1.0,74,0.00,,CLR,0.00,5.00,VWS V15.00,2014-02-23 14:25:00,
2014-02-23 06:30:00,38.7,31.5,29.98,WNW,293,1.0,1.0,75,0.00,,CLR,0.00,5.00,VWS V15.00,2014-02-23 14:30:00,
2014-02-23 06:35:00,38.8,31.6,29.98,WNW,293,0.0,2.0,75,0.00,,CLR,0.00,11.00,VWS V15.00,2014-02-23 14:35:00,
2014-02-23 06:40:00,39.1,31.9,29.98,WNW,293,1.0,2.0,75,0.00,,CLR,0.00,14.00,VWS V15.00,2014-02-23 14:40:00,
2014-02-23 06:45:00,39.1,31.5,29.99,WNW,293,0.0,2.0,74,0.00,,CLR,0.00,21.00,VWS V15.00,2014-02-23 14:45:00,
2014-02-23 06:50:00,39.3,31.7,29.99,WNW,293,1.0,2.0,74,0.00,,CLR,0.00,37.00,VWS V15.00,2014-02-23 14:50:00,
2014-02-23 06:55:00,39.9,32.3,29.99,WNW,293,1.0,2.0,74,0.00,,CLR,0.00,37.00,VWS V15.00,2014-02-23 14:55:00,
2014-02-23 07:00:00,40.7,32.7,29.99,WNW,293,1.0,1.0,73,0.00,,CLR,0.00,30.00,VWS V15.00,2014-02-23 15:00:00,
2014-02-23 07:05:00,40.8,32.5,29.99,WNW,293,1.0,1.0,72,0.00,,CLR,0.00,58.00,VWS V15.00,2014-02-23 15:05:00,
2014-02-23 07:10:00,41.8,33.1,29.99,WNW,293,1.0,2.0,71,0.00,,CLR,0.00,65.00,VWS V15.00,2014-02-23 15:10:00,
2014-02-23 07:15:00,42.6,33.9,30.00,WNW,293,0.0,2.0,71,0.00,,CLR,0.00,88.00,VWS V15.00,2014-02-23 15:15:00,
2014-02-23 07:20:00,43.6,34.1,30.00,WNW,293,0.0,2.0,69,0.00,,CLR,0.00,132.00,VWS V15.00,2014-02-23 15:20:00,
2014-02-23 07:25:00,44.3,34.0,30.00,WNW,293,0.0,2.0,67,0.00,,CLR,0.00,142.00,VWS V15.00,2014-02-23 15:25:00,
2014-02-23 07:30:00,45.4,34.3,30.00,WNW,293,0.0,0.0,65,0.00,,CLR,0.00,162.00,VWS V15.00,2014-02-23 15:30:00,
2014-02-23 07:35:00,46.1,35.0,30.00,WNW,293,0.0,1.0,65,0.00,,CLR,0.00,200.00,VWS V15.00,2014-02-23 15:35:00,
2014-02-23 07:40:00,47.7,35.7,30.00,WNW,293,0.0,1.0,63,0.00,,CLR,0.00,223.00,VWS V15.00,2014-02-23 15:40:00,
2014-02-23 07:45:00,50.1,36.8,30.00,WNW,293,0.0,1.0,60,0.00,,CLR,0.00,244.00,VWS V15.00,2014-02-23 15:45:00,
2014-02-23 07:50:00,52.2,36.1,30.00,WNW,293,1.0,1.0,54,0.00,,CLR,0.00,156.00,VWS V15.00,2014-02-23 15:50:00,
2014-02-23 07:55:00,54.3,36.6,30.00,WNW,293,1.0,1.0,51,0.00,,CLR,0.00,102.00,VWS V15.00,2014-02-23 15:55:00,
2014-02-23 08:00:00,55.8,35.9,30.00,WNW,293,1.0,1.0,47,0.00,,CLR,0.00,70.00,VWS V15.00,2014-02-23 16:00:00,
2014-02-23 08:05:00,57.3,35.0,30.01,WNW,293,0.0,1.0,43,0.00,,CLR,0.00,302.00,VWS V15.00,2014-02-23 16:05:00,
2014-02-23 08:10:00,58.4,34.2,30.01,WNW,293,0.0,1.0,40,0.00,,CLR,0.00,315.00,VWS V15.00,2014-02-23 16:10:00,
2014-02-23 08:15:00,59.5,33.9,30.01,WNW,294,1.0,2.0,38,0.00,,CLR,0.00,325.00,VWS V15.00,2014-02-23 16:15:00,
2014-02-23 08:20:00,60.7,32.9,30.01,NNE,31,0.0,3.0,35,0.00,,CLR,0.00,316.00,VWS V15.00,2014-02-23 16:20:00,
2014-02-23 08:25:00,61.5,32.9,30.01,NNE,31,1.0,3.0,34,0.00,,CLR,0.00,359.00,VWS V15.00,2014-02-23 16:25:00,
2014-02-23 08:30:00,62.3,32.9,30.01,NNE,31,1.0,2.0,33,0.00,,CLR,0.00,396.00,VWS V15.00,2014-02-23 16:30:00,
2014-02-23 08:35:00,63.1,33.6,30.01,NNE,31,0.0,2.0,33,0.00,,CLR,0.00,408.00,VWS V15.00,2014-02-23 16:35:00,
2014-02-23 08:40:00,64.3,32.2,30.01,NNE,31,0.0,2.0,30,0.00,,CLR,0.00,424.00,VWS V15.00,2014-02-23 16:40:00,
2014-02-23 08:45:00,64.9,32.8,30.01,NNE,31,2.0,2.0,30,0.00,,CLR,0.00,438.00,VWS V15.00,2014-02-23 16:45:00,
2014-02-23 08:50:00,66.1,32.1,30.01,ENE,77,1.0,2.0,28,0.00,,CLR,0.00,455.00,VWS V15.00,2014-02-23 16:50:00,
2014-02-23 08:55:00,66.7,30.8,30.01,ENE,78,2.0,3.0,26,0.00,,CLR,0.00,471.00,VWS V15.00,2014-02-23 16:55:00,
2014-02-23 09:00:00,67.0,30.0,30.01,ENE,76,2.0,3.0,25,0.00,,CLR,0.00,485.00,VWS V15.00,2014-02-23 17:00:00,
2014-02-23 09:05:00,67.8,28.7,30.01,East,99,2.0,3.0,23,0.00,,CLR,0.00,501.00,VWS V15.00,2014-02-23 17:05:00,
2014-02-23 09:10:00,68.9,28.5,30.01,SSE,156,1.0,4.0,22,0.00,,CLR,0.00,515.00,VWS V15.00,2014-02-23 17:10:00,
2014-02-23 09:15:00,69.6,28.0,30.01,SW,227,0.0,4.0,21,0.00,,CLR,0.00,531.00,VWS V15.00,2014-02-23 17:15:00,
2014-02-23 09:20:00,69.4,27.8,30.01,West,279,0.0,4.0,21,0.00,,CLR,0.00,545.00,VWS V15.00,2014-02-23 17:20:00,
2014-02-23 09:25:00,70.3,28.5,30.01,West,277,0.0,4.0,21,0.00,,CLR,0.00,554.00,VWS V15.00,2014-02-23 17:25:00,
2014-02-23 09:30:00,69.6,25.5,30.00,WNW,291,1.0,2.0,19,0.00,,CLR,0.00,570.00,VWS V15.00,2014-02-23 17:30:00,
2014-02-23 09:35:00,70.3,29.7,30.00,South,178,0.0,4.0,22,0.00,,CLR,0.00,584.00,VWS V15.00,2014-02-23 17:35:00,
2014-02-23 09:40:00,70.1,30.6,30.00,West,271,6.0,8.0,23,0.00,,CLR,0.00,592.00,VWS V15.00,2014-02-23 17:40:00,
2014-02-23 09:45:00,70.0,30.5,30.01,WNW,288,4.0,8.0,23,0.00,,CLR,0.00,603.00,VWS V15.00,2014-02-23 17:45:00,
2014-02-23 09:50:00,70.9,30.2,30.01,West,273,3.0,8.0,22,0.00,,CLR,0.00,613.00,VWS V15.00,2014-02-23 17:50:00,
2014-02-23 09:55:00,71.0,29.1,30.01,NW,309,2.0,8.0,21,0.00,,CLR,0.00,626.00,VWS V15.00,2014-02-23 17:55:00,
2014-02-23 10:00:00,71.5,30.7,30.01,NW,320,2.0,2.0,22,0.00,,CLR,0.00,638.00,VWS V15.00,2014-02-23 18:00:00,
2014-02-23 10:05:00,71.7,29.7,30.01,NNW,342,2.0,3.0,21,0.00,,CLR,0.00,649.00,VWS V15.00,2014-02-23 18:05:00,
2014-02-23 10:10:00,72.1,30.0,30.01,WNW,288,2.0,5.0,21,0.00,,CLR,0.00,659.00,VWS V15.00,2014-02-23 18:10:00,
2014-02-23 10:15:00,72.0,31.1,30.01,West,273,3.0,5.0,22,0.00,,CLR,0.00,654.00,VWS V15.00,2014-02-23 18:15:00,
2014-02-23 10:20:00,72.8,29.4,30.01,West,260,2.0,5.0,20,0.00,,CLR,0.00,680.00,VWS V15.00,2014-02-23 18:20:00,
2014-02-23 10:25:00,72.9,31.9,30.00,WSW,245,1.0,5.0,22,0.00,,CLR,0.00,687.00,VWS V15.00,2014-02-23 18:25:00,
2014-02-23 10:30:00,72.6,29.3,30.00,West,272,2.0,3.0,20,0.00,,CLR,0.00,696.00,VWS V15.00,2014-02-23 18:30:00,
2014-02-23 10:35:00,72.4,27.9,30.00,NW,313,3.0,7.0,19,0.00,,CLR,0.00,707.00,VWS V15.00,2014-02-23 18:35:00,
2014-02-23 10:40:00,72.6,29.3,30.00,SSW,213,2.0,7.0,20,0.00,,CLR,0.00,712.00,VWS V15.00,2014-02-23 18:40:00,
2014-02-23 10:45:00,74.2,29.3,30.00,SW,217,1.0,7.0,19,0.00,,CLR,0.00,721.00,VWS V15.00,2014-02-23 18:45:00,
2014-02-23 10:50:00,74.3,30.7,30.00,SW,222,2.0,7.0,20,0.00,,CLR,0.00,726.00,VWS V15.00,2014-02-23 18:50:00,
2014-02-23 10:55:00,74.8,29.8,30.00,West,272,3.0,7.0,19,0.00,,CLR,0.00,731.00,VWS V15.00,2014-02-23 18:55:00,
2014-02-23 11:00:00,73.3,29.8,30.00,WNW,290,2.0,3.0,20,0.00,,CLR,0.00,742.00,VWS V15.00,2014-02-23 19:00:00,
2014-02-23 11:05:00,74.4,30.8,30.00,WNW,283,3.0,7.0,20,0.00,,CLR,0.00,745.00,VWS V15.00,2014-02-23 19:05:00,
2014-02-23 11:10:00,75.4,30.3,30.00,SSW,205,3.0,7.0,19,0.00,,CLR,0.00,752.00,VWS V15.00,2014-02-23 19:10:00,
2014-02-23 11:15:00,75.9,28.0,29.99,West,265,1.0,7.0,17,0.00,,CLR,0.00,754.00,VWS V15.00,2014-02-23 19:15:00,
2014-02-23 11:20:00,73.9,27.8,29.99,West,271,3.0,7.0,18,0.00,,CLR,0.00,759.00,VWS V15.00,2014-02-23 19:20:00,
2014-02-23 11:25:00,74.0,27.9,29.99,West,265,2.0,7.0,18,0.00,,CLR,0.00,763.00,VWS V15.00,2014-02-23 19:25:00,
2014-02-23 11:30:00,74.2,28.0,29.99,SW,235,1.0,3.0,18,0.00,,CLR,0.00,765.00,VWS V15.00,2014-02-23 19:30:00,
2014-02-23 11:35:00,74.8,27.1,29.99,West,261,7.0,7.0,17,0.00,,CLR,0.00,768.00,VWS V15.00,2014-02-23 19:35:00,
2014-02-23 11:40:00,74.4,26.8,29.99,West,271,1.0,8.0,17,0.00,,CLR,0.00,759.00,VWS V15.00,2014-02-23 19:40:00,
2014-02-23 11:45:00,74.5,29.6,29.98,SW,228,2.0,8.0,19,0.00,,CLR,0.00,763.00,VWS V15.00,2014-02-23 19:45:00,
2014-02-23 11:50:00,75.5,29.1,29.98,West,273,2.0,8.0,18,0.00,,CLR,0.00,773.00,VWS V15.00,2014-02-23 19:50:00,
2014-02-23 11:55:00,75.9,26.5,29.98,North,355,0.0,8.0,16,0.00,,CLR,0.00,772.00,VWS V15.00,2014-02-23 19:55:00,
2014-02-23 12:00:00,74.9,27.2,29.97,West,267,2.0,4.0,17,0.00,,CLR,0.00,772.00,VWS V15.00,2014-02-23 20:00:00,
2014-02-23 12:05:00,74.9,28.6,29.97,WNW,282,2.0,7.0,18,0.00,,CLR,0.00,770.00,VWS V15.00,2014-02-23 20:05:00,
2014-02-23 12:10:00,76.0,28.1,29.97,NNW,338,1.0,10.0,17,0.00,,CLR,0.00,773.00,VWS V15.00,2014-02-23 20:10:00,
2014-02-23 12:15:00,75.6,26.3,29.97,West,270,4.0,10.0,16,0.00,,CLR,0.00,772.00,VWS V15.00,2014-02-23 20:15:00,
2014-02-23 12:20:00,75.4,30.3,29.97,NW,323,3.0,10.0,19,0.00,,CLR,0.00,770.00,VWS V15.00,2014-02-23 20:20:00,
2014-02-23 12:25:00,75.5,27.7,29.96,West,260,3.0,10.0,17,0.00,,CLR,0.00,768.00,VWS V15.00,2014-02-23 20:25:00,
2014-02-23 12:30:00,76.2,28.2,29.96,West,277,0.0,3.0,17,0.00,,CLR,0.00,763.00,VWS V15.00,2014-02-23 20:30:00,
2014-02-23 12:35:00,76.3,29.7,29.96,West,264,7.0,8.0,18,0.00,,CLR,0.00,765.00,VWS V15.00,2014-02-23 20:35:00,
2014-02-23 12:40:00,76.4,28.4,29.95,WNW,294,3.0,9.0,17,0.00,,CLR,0.00,761.00,VWS V15.00,2014-02-23 20:40:00,
2014-02-23 12:45:00,76.2,26.8,29.95,SW,214,1.0,9.0,16,0.00,,CLR,0.00,758.00,VWS V15.00,2014-02-23 20:45:00,
2014-02-23 12:50:00,76.2,28.2,29.95,West,278,3.0,9.0,17,0.00,,CLR,0.00,752.00,VWS V15.00,2014-02-23 20:50:00,
2014-02-23 12:55:00,76.9,30.2,29.95,NW,325,3.0,9.0,18,0.00,,CLR,0.00,747.00,VWS V15.00,2014-02-23 20:55:00,
2014-02-23 13:00:00,77.2,27.6,29.95,WNW,287,2.0,3.0,16,0.00,,CLR,0.00,744.00,VWS V15.00,2014-02-23 21:00:00,
2014-02-23 13:05:00,77.6,29.4,29.94,WNW,292,3.0,8.0,17,0.00,,CLR,0.00,737.00,VWS V15.00,2014-02-23 21:05:00,
2014-02-23 13:10:00,77.6,27.9,29.94,South,190,5.0,8.0,16,0.00,,CLR,0.00,733.00,VWS V15.00,2014-02-23 21:10:00,
2014-02-23 13:15:00,77.7,26.4,29.94,NW,323,3.0,8.0,15,0.00,,CLR,0.00,729.00,VWS V15.00,2014-02-23 21:15:00,
2014-02-23 13:20:00,76.5,27.0,29.94,North,5,2.0,12.0,16,0.00,,CLR,0.00,719.00,VWS V15.00,2014-02-23 21:20:00,
2014-02-23 13:25:00,77.6,27.9,29.94,West,279,1.0,12.0,16,0.00,,CLR,0.00,710.00,VWS V15.00,2014-02-23 21:25:00,
2014-02-23 13:30:00,77.9,28.1,29.94,West,261,4.0,4.0,16,0.00,,CLR,0.00,701.00,VWS V15.00,2014-02-23 21:30:00,
2014-02-23 13:35:00,78.5,28.6,29.94,WNW,284,8.0,8.0,16,0.00,,CLR,0.00,696.00,VWS V15.00,2014-02-23 21:35:00,
2014-02-23 13:40:00,77.8,28.1,29.93,SW,236,1.0,8.0,16,0.00,,CLR,0.00,686.00,VWS V15.00,2014-02-23 21:40:00,
2014-02-23 13:45:00,78.6,27.1,29.93,SW,234,3.0,9.0,15,0.00,,CLR,0.00,668.00,VWS V15.00,2014-02-23 21:45:00,
2014-02-23 13:50:00,77.6,29.4,29.93,SSW,207,3.0,9.0,17,0.00,,CLR,0.00,663.00,VWS V15.00,2014-02-23 21:50:00,
2014-02-23 13:55:00,77.6,30.8,29.93,West,281,3.0,9.0,18,0.00,,CLR,0.00,652.00,VWS V15.00,2014-02-23 21:55:00,
2014-02-23 14:00:00,77.2,29.0,29.92,West,278,4.0,4.0,17,0.00,,CLR,0.00,640.00,VWS V15.00,2014-02-23 22:00:00,
2014-02-23 14:05:00,77.7,30.9,29.93,West,268,4.0,8.0,18,0.00,,CLR,0.00,631.00,VWS V15.00,2014-02-23 22:05:00,
2014-02-23 14:10:00,77.5,30.7,29.92,WSW,246,1.0,8.0,18,0.00,,CLR,0.00,622.00,VWS V15.00,2014-02-23 22:10:00,
2014-02-23 14:15:00,77.7,29.5,29.92,SSW,209,2.0,8.0,17,0.00,,CLR,0.00,608.00,VWS V15.00,2014-02-23 22:15:00,
2014-02-23 14:20:00,76.9,31.5,29.92,NW,311,3.0,8.0,19,0.00,,CLR,0.00,596.00,VWS V15.00,2014-02-23 22:20:00,
2014-02-23 14:25:00,77.6,32.1,29.92,WNW,284,1.0,13.0,19,0.00,,CLR,0.00,582.00,VWS V15.00,2014-02-23 22:25:00,
2014-02-23 14:30:00,77.7,33.5,29.92,NNW,347,3.0,5.0,20,0.00,,CLR,0.00,570.00,VWS V15.00,2014-02-23 22:30:00,
2014-02-23 14:35:00,77.8,33.6,29.92,WSW,237,2.0,9.0,20,0.00,,CLR,0.00,554.00,VWS V15.00,2014-02-23 22:35:00,
2014-02-23 14:40:00,77.4,33.2,29.92,SW,219,2.0,9.0,20,0.00,,CLR,0.00,545.00,VWS V15.00,2014-02-23 22:40:00,
2014-02-23 14:45:00,77.7,34.7,29.92,WNW,303,4.0,9.0,21,0.00,,CLR,0.00,531.00,VWS V15.00,2014-02-23 22:45:00,
2014-02-23 14:50:00,77.5,34.5,29.92,WNW,293,3.0,9.0,21,0.00,,CLR,0.00,492.00,VWS V15.00,2014-02-23 22:50:00,
2014-02-23 14:55:00,77.2,34.3,29.92,West,264,2.0,9.0,21,0.00,,CLR,0.00,396.00,VWS V15.00,2014-02-23 22:55:00,
2014-02-23 15:00:00,76.5,36.0,29.92,WNW,300,3.0,3.0,23,0.00,,CLR,0.00,179.00,VWS V15.00,2014-02-23 23:00:00,
2014-02-23 15:05:00,76.3,33.5,29.92,SSW,209,4.0,6.0,21,0.00,,CLR,0.00,232.00,VWS V15.00,2014-02-23 23:05:00,
2014-02-23 15:10:00,75.9,34.4,29.92,WSW,250,5.0,7.0,22,0.00,,CLR,0.00,142.00,VWS V15.00,2014-02-23 23:10:00,
2014-02-23 15:15:00,75.9,36.5,29.92,West,277,1.0,7.0,24,0.00,,CLR,0.00,330.00,VWS V15.00,2014-02-23 23:15:00,
2014-02-23 15:20:00,75.8,36.5,29.92,West,273,2.0,9.0,24,0.00,,CLR,0.00,155.00,VWS V15.00,2014-02-23 23:20:00,
2014-02-23 15:25:00,75.5,36.2,29.92,WNW,282,3.0,9.0,24,0.00,,CLR,0.00,167.00,VWS V15.00,2014-02-23 23:25:00,
2014-02-23 15:30:00,75.5,36.2,29.92,WNW,286,7.0,7.0,24,0.00,,CLR,0.00,93.00,VWS V15.00,2014-02-23 23:30:00,
2014-02-23 15:35:00,75.5,35.2,29.92,WNW,284,4.0,8.0,23,0.00,,CLR,0.00,84.00,VWS V15.00,2014-02-23 23:35:00,
2014-02-23 15:40:00,74.8,36.7,29.92,WSW,255,3.0,8.0,25,0.00,,CLR,0.00,79.00,VWS V15.00,2014-02-23 23:40:00,
2014-02-23 15:45:00,75.1,35.9,29.92,WNW,284,3.0,8.0,24,0.00,,CLR,0.00,67.00,VWS V15.00,2014-02-23 23:45:00,
2014-02-23 15:50:00,74.8,35.6,29.92,WSW,243,1.0,8.0,24,0.00,,CLR,0.00,39.00,VWS V15.00,2014-02-23 23:50:00,
2014-02-23 15:55:00,74.6,36.5,29.92,West,275,6.0,8.0,25,0.00,,CLR,0.00,37.00,VWS V15.00,2014-02-23 23:55:00,
2014-02-23 16:00:00,74.1,38.0,29.93,WNW,282,3.0,3.0,27,0.00,,CLR,0.00,37.00,VWS V15.00,2014-02-24 00:00:00,
2014-02-23 16:05:00,73.7,35.7,29.93,WNW,282,2.0,6.0,25,0.00,,CLR,0.00,35.00,VWS V15.00,2014-02-24 00:05:00,
2014-02-23 16:10:00,73.5,37.5,29.93,West,260,2.0,6.0,27,0.00,,CLR,0.00,35.00,VWS V15.00,2014-02-24 00:10:00,
2014-02-23 16:15:00,73.2,37.2,29.93,SW,224,4.0,6.0,27,0.00,,CLR,0.00,33.00,VWS V15.00,2014-02-24 00:15:00,
2014-02-23 16:20:00,72.9,37.9,29.93,NW,317,3.0,6.0,28,0.00,,CLR,0.00,33.00,VWS V15.00,2014-02-24 00:20:00,
2014-02-23 16:25:00,72.5,37.6,29.93,West,262,1.0,6.0,28,0.00,,CLR,0.00,32.00,VWS V15.00,2014-02-24 00:25:00,
2014-02-23 16:30:00,72.0,36.2,29.93,SW,231,2.0,2.0,27,0.00,,CLR,0.00,32.00,VWS V15.00,2014-02-24 00:30:00,
2014-02-23 16:35:00,71.5,36.7,29.93,SW,219,3.0,8.0,28,0.00,,CLR,0.00,30.00,VWS V15.00,2014-02-24 00:35:00,
2014-02-23 16:40:00,70.9,36.2,29.94,WSW,242,3.0,8.0,28,0.00,,CLR,0.00,28.00,VWS V15.00,2014-02-24 00:40:00,
2014-02-23 16:45:00,70.4,35.8,29.94,West,271,3.0,8.0,28,0.00,,CLR,0.00,28.00,VWS V15.00,2014-02-24 00:45:00,
2014-02-23 16:50:00,69.9,36.2,29.94,WSW,246,1.0,8.0,29,0.00,,CLR,0.00,30.00,VWS V15.00,2014-02-24 00:50:00,
2014-02-23 16:55:00,69.5,35.9,29.94,WNW,299,1.0,8.0,29,0.00,,CLR,0.00,25.00,VWS V15.00,2014-02-24 00:55:00,
2014-02-23 17:00:00,69.0,36.3,29.94,West,269,2.0,8.0,30,0.00,,CLR,0.00,21.00,VWS V15.00,2014-02-24 01:00:00,
2014-02-23 17:05:00,68.4,35.8,29.95,WSW,244,0.0,4.0,30,0.00,,CLR,0.00,19.00,VWS V15.00,2014-02-24 01:05:00,
2014-02-23 17:10:00,68.0,35.4,29.95,West,263,1.0,4.0,30,0.00,,CLR,0.00,18.00,VWS V15.00,2014-02-24 01:10:00,
2014-02-23 17:15:00,67.5,35.8,29.95,West,271,0.0,4.0,31,0.00,,CLR,0.00,16.00,VWS V15.00,2014-02-24 01:15:00,
2014-02-23 17:20:00,66.9,36.1,29.95,West,269,2.0,4.0,32,0.00,,CLR,0.00,12.00,VWS V15.00,2014-02-24 01:20:00,
2014-02-23 17:25:00,66.5,36.5,29.96,West,279,2.0,4.0,33,0.00,,CLR,0.00,11.00,VWS V15.00,2014-02-24 01:25:00,
2014-02-23 17:30:00,66.2,37.0,29.96,WNW,296,0.0,4.0,34,0.00,,CLR,0.00,9.00,VWS V15.00,2014-02-24 01:30:00,
2014-02-23 17:35:00,65.3,37.0,29.96,NW,320,2.0,3.0,35,0.00,,CLR,0.00,7.00,VWS V15.00,2014-02-24 01:35:00,
2014-02-23 17:40:00,64.9,37.3,29.96,WNW,298,1.0,3.0,36,0.00,,CLR,0.00,5.00,VWS V15.00,2014-02-24 01:40:00,
2014-02-23 17:45:00,64.5,38.3,29.96,NW,304,2.0,3.0,38,0.00,,CLR,0.00,0.00,VWS V15.00,2014-02-24 01:45:00,
2014-02-23 17:50:00,64.2,38.8,29.97,West,280,0.0,4.0,39,0.00,,CLR,0.00,0.00,VWS V15.00,2014-02-24 01:50:00,
2014-02-23 17:55:00,63.9,39.1,29.97,West,275,2.0,4.0,40,0.00,,CLR,0.00,0.00,VWS V15.00,2014-02-24 01:55:00,
2014-02-23 18:00:00,63.4,38.7,29.97,West,276,0.0,4.0,40,0.00,,CLR,0.00,0.00,VWS V15.00,2014-02-24 02:00:00,
2014-02-23 18:05:00,62.9,38.9,29.97,West,275,1.0,6.0,41,0.00,,CLR,0.00,0.00,VWS V15.00,2014-02-24 02:05:00,
2014-02-23 18:10:00,62.7,38.0,29.98,West,276,3.0,6.0,40,0.00,,CLR,0.00,0.00,VWS V15.00,2014-02-24 02:10:00,
2014-02-23 18:15:00,62.2,37.0,29.98,NW,311,1.0,6.0,39,0.00,,CLR,0.00,0.00,VWS V15.00,2014-02-24 02:15:00,
2014-02-23 18:20:00,62.0,36.1,29.98,WNW,296,2.0,6.0,38,0.00,,CLR,0.00,0.00,VWS V15.00,2014-02-24 02:20:00,
2014-02-23 18:25:00,61.7,35.9,29.98,WNW,292,3.0,6.0,38,0.00,,CLR,0.00,0.00,VWS V15.00,2014-02-24 02:25:00,
2014-02-23 18:29:00,61.3,35.5,29.98,WNW,292,2.0,6.0,38,0.00,,CLR,0.00,0.00,VWS V15.00,2014-02-24 02:29:00,
2014-02-23 18:30:00,55.0,34.6,29.98,WNW,295,0.0,1.0,46,0.00,,CLR,0.00,0.00,VWS V15.00,2014-02-24 02:30:00,
2014-02-23 18:34:00,61.0,35.2,29.98,NNW,341,1.0,4.0,38,0.00,,CLR,0.00,0.00,VWS V15.00,2014-02-24 02:34:00,
2014-02-23 18:40:00,60.7,35.6,29.98,NNW,341,0.0,4.0,39,0.00,,CLR,0.00,0.00,VWS V15.00,2014-02-24 02:40:00,
2014-02-23 18:45:00,60.4,35.3,29.98,WNW,292,3.0,4.0,39,0.00,,CLR,0.00,0.00,VWS V15.00,2014-02-24 02:45:00,
2014-02-23 18:49:00,60.1,35.1,29.99,WNW,295,0.0,4.0,39,0.00,,CLR,0.00,0.00,VWS V15.00,2014-02-24 02:49:00,
2014-02-23 18:54:00,59.7,34.7,29.98,WNW,295,0.0,4.0,39,0.00,,CLR,0.00,0.00,VWS V15.00,2014-02-24 02:54:00,
2014-02-23 18:59:00,59.2,34.9,29.98,WNW,295,0.0,4.0,40,0.00,,CLR,0.00,0.00,VWS V15.00,2014-02-24 02:59:00,
2014-02-23 19:00:00,52.5,34.4,29.99,WNW,295,0.0,1.0,50,0.00,,CLR,0.00,0.00,VWS V15.00,2014-02-24 03:00:00,
2014-02-23 19:04:00,58.4,34.8,29.98,WNW,295,0.0,0.0,41,0.00,,CLR,0.00,0.00,VWS V15.00,2014-02-24 03:04:00,
2014-02-23 19:09:00,58.0,35.1,29.98,WNW,295,0.0,1.0,42,0.00,,CLR,0.00,0.00,VWS V15.00,2014-02-24 03:09:00,
2014-02-23 19:14:00,57.5,34.6,29.98,WNW,295,0.0,1.0,42,0.00,,CLR,0.00,0.00,VWS V15.00,2014-02-24 03:14:00,
2014-02-23 19:19:00,56.5,34.9,29.99,WNW,295,0.0,1.0,44,0.00,,CLR,0.00,0.00,VWS V15.00,2014-02-24 03:19:00,
2014-02-23 19:24:00,56.0,34.4,29.99,WNW,295,0.0,1.0,44,0.00,,CLR,0.00,0.00,VWS V15.00,2014-02-24 03:24:00,
2014-02-23 19:29:00,55.0,34.6,29.98,WNW,295,0.0,1.0,46,0.00,,CLR,0.00,0.00,VWS V15.00,2014-02-24 03:29:00,
2014-02-23 19:30:00,51.1,33.6,30.00,NNE,15,0.0,2.0,51,0.00,,CLR,0.00,0.00,VWS V15.00,2014-02-24 03:30:00,
2014-02-23 19:34:00,54.3,35.0,29.99,WNW,295,0.0,0.0,48,0.00,,CLR,0.00,0.00,VWS V15.00,2014-02-24 03:34:00,
2014-02-23 19:39:00,54.3,35.0,29.99,WNW,295,0.0,1.0,48,0.00,,CLR,0.00,0.00,VWS V15.00,2014-02-24 03:39:00,
2014-02-23 19:44:00,53.5,34.8,29.99,WNW,295,0.0,1.0,49,0.00,,CLR,0.00,0.00,VWS V15.00,2014-02-24 03:44:00,
2014-02-23 19:49:00,53.1,34.5,29.99,WNW,295,0.0,1.0,49,0.00,,CLR,0.00,0.00,VWS V15.00,2014-02-24 03:49:00,
2014-02-23 19:54:00,52.7,34.6,29.99,WNW,295,0.0,1.0,50,0.00,,CLR,0.00,0.00,VWS V15.00,2014-02-24 03:54:00,
2014-02-23 19:59:00,52.5,34.4,29.99,WNW,295,0.0,1.0,50,0.00,,CLR,0.00,0.00,VWS V15.00,2014-02-24 03:59:00,
2014-02-23 20:00:00,49.3,33.4,30.00,NNE,15,0.0,1.0,54,0.00,,CLR,0.00,0.00,VWS V15.00,2014-02-24 04:00:00,
2014-02-23 20:04:00,51.9,34.4,30.00,WNW,295,0.0,1.0,51,0.00,,CLR,0.00,0.00,VWS V15.00,2014-02-24 04:04:00,
2014-02-23 20:09:00,51.9,34.4,30.00,WNW,295,1.0,1.0,51,0.00,,CLR,0.00,0.00,VWS V15.00,2014-02-24 04:09:00,
2014-02-23 20:14:00,52.2,33.6,30.00,NNE,15,0.0,2.0,49,0.00,,CLR,0.00,0.00,VWS V15.00,2014-02-24 04:14:00,
2014-02-23 20:19:00,51.8,33.3,30.00,NNE,15,0.0,2.0,49,0.00,,CLR,0.00,0.00,VWS V15.00,2014-02-24 04:19:00,
2014-02-23 20:24:00,51.6,33.6,30.00,NNE,15,0.0,2.0,50,0.00,,CLR,0.00,0.00,VWS V15.00,2014-02-24 04:24:00,
2014-02-23 20:29:00,51.1,33.6,30.00,NNE,15,0.0,2.0,51,0.00,,CLR,0.00,0.00,VWS V15.00,2014-02-24 04:29:00,
2014-02-23 20:30:00,48.3,33.8,30.00,NNE,15,1.0,1.0,57,0.00,,CLR,0.00,0.00,VWS V15.00,2014-02-24 04:30:00,
2014-02-23 20:34:00,51.4,34.4,30.00,NNE,15,0.0,0.0,52,0.00,,CLR,0.00,0.00,VWS V15.00,2014-02-24 04:34:00,
2014-02-23 20:39:00,50.3,33.4,30.00,NNE,15,0.0,0.0,52,0.00,,CLR,0.00,0.00,VWS V15.00,2014-02-24 04:39:00,
2014-02-23 20:44:00,49.5,33.6,30.00,NNE,15,0.0,1.0,54,0.00,,CLR,0.00,0.00,VWS V15.00,2014-02-24 04:44:00,
2014-02-23 20:49:00,49.6,33.7,30.00,NNE,15,0.0,1.0,54,0.00,,CLR,0.00,0.00,VWS V15.00,2014-02-24 04:49:00,
2014-02-23 20:54:00,49.8,33.8,30.00,NNE,15,0.0,1.0,54,0.00,,CLR,0.00,0.00,VWS V15.00,2014-02-24 04:54:00,
2014-02-23 20:59:00,49.4,33.5,30.00,NNE,15,0.0,1.0,54,0.00,,CLR,0.00,0.00,VWS V15.00,2014-02-24 04:59:00,
2014-02-23 21:00:00,46.7,34.0,30.00,NNE,15,0.0,2.0,61,0.00,,CLR,0.00,0.00,VWS V15.00,2014-02-24 05:00:00,
2014-02-23 21:01:00,49.2,33.7,30.00,NNE,15,0.0,0.0,55,0.00,,CLR,0.00,0.00,VWS V15.00,2014-02-24 05:01:00,
2014-02-23 21:06:00,48.8,33.8,30.00,NNE,15,0.0,0.0,56,0.00,,CLR,0.00,0.00,VWS V15.00,2014-02-24 05:06:00,
2014-02-23 21:11:00,48.8,33.8,30.00,NNE,15,0.0,0.0,56,0.00,,CLR,0.00,0.00,VWS V15.00,2014-02-24 05:11:00,
2014-02-23 21:16:00,48.3,33.8,30.00,NNE,15,0.0,0.0,57,0.00,,CLR,0.00,0.00,VWS V15.00,2014-02-24 05:16:00,
2014-02-23 21:21:00,48.1,34.0,30.00,NNE,15,0.0,0.0,58,0.00,,CLR,0.00,0.00,VWS V15.00,2014-02-24 05:21:00,
2014-02-23 21:26:00,48.6,34.1,30.00,NNE,15,0.0,1.0,57,0.00,,CLR,0.00,0.00,VWS V15.00,2014-02-24 05:26:00,
2014-02-23 21:30:00,46.5,34.6,30.00,NNE,15,0.0,1.0,63,0.00,,CLR,0.00,0.00,VWS V15.00,2014-02-24 05:30:00,
2014-02-23 21:31:00,48.3,34.2,30.00,NNE,15,0.0,1.0,58,0.00,,CLR,0.00,0.00,VWS V15.00,2014-02-24 05:31:00,
2014-02-23 21:33:00,48.1,34.0,30.00,NNE,15,1.0,1.0,58,0.00,,CLR,0.00,0.00,VWS V15.00,2014-02-24 05:33:00,
2014-02-23 21:38:00,47.4,34.2,30.00,NNE,15,0.0,1.0,60,0.00,,CLR,0.00,0.00,VWS V15.00,2014-02-24 05:38:00,
2014-02-23 21:43:00,48.6,34.5,30.00,NNE,15,0.0,2.0,58,0.00,,CLR,0.00,0.00,VWS V15.00,2014-02-24 05:43:00,
2014-02-23 21:48:00,48.6,34.1,30.01,NNE,15,0.0,2.0,57,0.00,,CLR,0.00,0.00,VWS V15.00,2014-02-24 05:48:00,
2014-02-23 21:53:00,47.6,34.0,30.00,NNE,15,0.0,2.0,59,0.00,,CLR,0.00,0.00,VWS V15.00,2014-02-24 05:53:00,
2014-02-23 21:58:00,46.9,33.8,30.00,NNE,15,0.0,2.0,60,0.00,,CLR,0.00,0.00,VWS V15.00,2014-02-24 05:58:00,
2014-02-23 22:00:00,46.3,34.8,30.01,NNE,15,0.0,2.0,64,0.00,,CLR,0.00,0.00,VWS V15.00,2014-02-24 06:00:00,
2014-02-23 22:03:00,46.8,34.1,30.00,NNE,15,0.0,0.0,61,0.00,,CLR,0.00,0.00,VWS V15.00,2014-02-24 06:03:00,
2014-02-23 22:08:00,46.2,33.9,30.01,NNE,15,0.0,1.0,62,0.00,,CLR,0.00,0.00,VWS V15.00,2014-02-24 06:08:00,
2014-02-23 22:13:00,46.4,34.5,30.01,NNE,15,0.0,1.0,63,0.00,,CLR,0.00,0.00,VWS V15.00,2014-02-24 06:13:00,
2014-02-23 22:18:00,46.5,34.6,30.01,NNE,15,0.0,1.0,63,0.00,,CLR,0.00,0.00,VWS V15.00,2014-02-24 06:18:00,
2014-02-23 22:23:00,46.3,34.4,30.01,NNE,15,0.0,1.0,63,0.00,,CLR,0.00,0.00,VWS V15.00,2014-02-24 06:23:00,
2014-02-23 22:28:00,46.3,34.4,30.00,NNE,15,0.0,1.0,63,0.00,,CLR,0.00,0.00,VWS V15.00,2014-02-24 06:28:00,
2014-02-23 22:30:00,44.5,33.5,30.01,NNE,15,0.0,1.0,65,0.00,,CLR,0.00,0.00,VWS V15.00,2014-02-24 06:30:00,
2014-02-23 22:33:00,47.0,34.7,30.01,NNE,15,0.0,0.0,62,0.00,,CLR,0.00,0.00,VWS V15.00,2014-02-24 06:33:00,
2014-02-23 22:38:00,46.4,33.7,30.01,NNE,15,0.0,0.0,61,0.00,,CLR,0.00,0.00,VWS V15.00,2014-02-24 06:38:00,
2014-02-23 22:43:00,46.4,34.5,30.01,NNE,15,1.0,1.0,63,0.00,,CLR,0.00,0.00,VWS V15.00,2014-02-24 06:43:00,
2014-02-23 22:48:00,46.4,33.7,30.01,NNE,15,0.0,2.0,61,0.00,,CLR,0.00,0.00,VWS V15.00,2014-02-24 06:48:00,
2014-02-23 22:53:00,46.0,33.7,30.01,NNE,15,0.0,2.0,62,0.00,,CLR,0.00,0.00,VWS V15.00,2014-02-24 06:53:00,
2014-02-23 22:58:00,46.1,34.2,30.01,NNE,15,0.0,2.0,63,0.00,,CLR,0.00,0.00,VWS V15.00,2014-02-24 06:58:00,
2014-02-23 23:00:00,43.8,33.9,30.02,NNE,15,0.0,1.0,68,0.00,,CLR,0.00,0.00,VWS V15.00,2014-02-24 07:00:00,
2014-02-23 23:03:00,45.8,33.5,30.01,NNE,15,0.0,0.0,62,0.00,,CLR,0.00,0.00,VWS V15.00,2014-02-24 07:03:00,
2014-02-23 23:08:00,44.7,33.7,30.01,NNE,15,0.0,1.0,65,0.00,,CLR,0.00,0.00,VWS V15.00,2014-02-24 07:08:00,
2014-02-23 23:13:00,44.8,34.2,30.01,NNE,15,0.0,1.0,66,0.00,,CLR,0.00,0.00,VWS V15.00,2014-02-24 07:13:00,
2014-02-23 23:18:00,44.8,34.2,30.01,NNE,15,0.0,1.0,66,0.00,,CLR,0.00,0.00,VWS V15.00,2014-02-24 07:18:00,
2014-02-23 23:23:00,45.4,34.7,30.01,NNE,15,0.0,1.0,66,0.00,,CLR,0.00,0.00,VWS V15.00,2014-02-24 07:23:00,
2014-02-23 23:28:00,44.9,33.5,30.01,NNE,15,0.0,1.0,64,0.00,,CLR,0.00,0.00,VWS V15.00,2014-02-24 07:28:00,
2014-02-23 23:30:00,43.4,33.2,30.02,NNE,15,0.0,1.0,67,0.00,,CLR,0.00,0.00,VWS V15.00,2014-02-24 07:30:00,
2014-02-23 23:33:00,44.3,33.7,30.02,NNE,15,0.0,0.0,66,0.00,,CLR,0.00,0.00,VWS V15.00,2014-02-24 07:33:00,
2014-02-23 23:38:00,44.0,33.8,30.02,NNE,15,0.0,1.0,67,0.00,,CLR,0.00,0.00,VWS V15.00,2014-02-24 07:38:00,
2014-02-23 23:43:00,43.9,34.0,30.02,NNE,15,0.0,1.0,68,0.00,,CLR,0.00,0.00,VWS V15.00,2014-02-24 07:43:00,
2014-02-23 23:48:00,44.5,34.6,30.02,NNE,15,0.0,1.0,68,0.00,,CLR,0.00,0.00,VWS V15.00,2014-02-24 07:48:00,
2014-02-23 23:53:00,44.2,33.6,30.02,NNE,15,0.0,1.0,66,0.00,,CLR,0.00,0.00,VWS V15.00,2014-02-24 07:53:00,
2014-02-23 23:58:00,43.8,34.3,30.02,NNE,15,0.0,1.0,69,0.00,,CLR,0.00,0.00,VWS V15.00,2014-02-24 07:58:00,